Time;durP1;ratioP1;P1;durP2;ratioP2;P2;SDS_P1;SDS_P2;PMS_P1;PMS_P2;Temp;Humidity;BMP_temperature;BMP_pressure;BME280_temperature;BME280_humidity;BME280_pressure;Samples;Min_cycle;Max_cycle;Signal;HPM_P1;HPM_P2
2022/01/31 00:00:18;;;;;;;8.57;4.43;;;15.10;82.30;;;;;;2036795;28;20186;-77
2022/01/31 00:01:17;;;;;;;9.00;4.60;;;15.10;81.60;;;;;;2036641;28;20178;-76
2022/01/31 00:02:16;;;;;;;6.67;3.80;;;15.10;81.60;;;;;;2036839;28;20257;-77
2022/01/31 00:03:14;;;;;;;6.53;4.10;;;15.10;81.60;;;;;;2036578;28;20190;-75
2022/01/31 00:04:12;;;;;;;9.27;4.30;;;15.10;81.50;;;;;;2036002;28;20597;-76
2022/01/31 00:05:11;;;;;;;12.07;5.63;;;15.10;81.60;;;;;;2036301;28;20257;-76
2022/01/31 00:06:10;;;;;;;10.13;4.33;;;15.10;81.50;;;;;;2036760;28;20249;-76
2022/01/31 00:07:10;;;;;;;9.43;3.87;;;15.10;81.50;;;;;;2036892;28;20206;-75
2022/01/31 00:08:08;;;;;;;10.98;5.03;;;15.10;81.60;;;;;;2036654;28;20169;-77
2022/01/31 00:09:13;;;;;;;6.10;3.63;;;15.00;81.50;;;;;;2036630;28;20542;-75
2022/01/31 00:10:13;;;;;;;10.73;4.03;;;15.00;81.40;;;;;;2036691;28;20196;-76
2022/01/31 00:11:12;;;;;;;9.00;4.25;;;15.00;81.60;;;;;;2036635;28;20166;-77
2022/01/31 00:12:14;;;;;;;10.10;4.80;;;15.00;81.50;;;;;;2036726;28;20222;-76
2022/01/31 00:13:18;;;;;;;9.70;4.93;;;15.00;81.50;;;;;;2036691;28;20660;-76
2022/01/31 00:14:30;;;;;;;9.80;4.75;;;15.00;81.60;;;;;;2036711;28;20162;-76
2022/01/31 00:15:29;;;;;;;6.13;3.97;;;15.00;81.50;;;;;;2036255;28;20147;-75
2022/01/31 00:16:32;;;;;;;15.50;3.95;;;15.00;81.60;;;;;;2036362;28;20182;-76
2022/01/31 00:17:30;;;;;;;8.45;3.92;;;15.00;81.60;;;;;;2036697;28;20527;-76
2022/01/31 00:18:29;;;;;;;11.57;4.60;;;14.80;81.30;;;;;;2036882;28;20178;-76
2022/01/31 00:19:28;;;;;;;9.77;4.30;;;15.00;81.60;;;;;;2036760;28;20182;-76
2022/01/31 00:20:26;;;;;;;8.40;4.17;;;15.00;81.60;;;;;;2036838;28;20178;-76
2022/01/31 00:21:26;;;;;;;8.13;4.40;;;15.00;81.70;;;;;;2036939;28;20412;-76
2022/01/31 00:22:24;;;;;;;11.40;4.07;;;15.00;81.70;;;;;;2036661;28;20178;-75
2022/01/31 00:23:22;;;;;;;9.67;5.07;;;15.00;81.60;;;;;;2035984;28;20226;-76
2022/01/31 00:24:21;;;;;;;7.00;4.13;;;15.00;81.60;;;;;;2036096;28;20178;-76
2022/01/31 00:25:20;;;;;;;10.47;3.87;;;15.00;81.60;;;;;;2036021;28;20182;-76
2022/01/31 00:26:18;;;;;;;9.80;4.80;;;15.00;81.60;;;;;;2036802;28;20265;-76
2022/01/31 00:27:17;;;;;;;8.90;4.27;;;15.00;81.60;;;;;;2036694;28;20178;-76
2022/01/31 00:28:15;;;;;;;8.90;3.90;;;15.00;81.50;;;;;;2036771;28;20540;-76
2022/01/31 00:29:14;;;;;;;7.37;3.47;;;15.00;81.50;;;;;;2036972;28;20174;-76
2022/01/31 00:30:13;;;;;;;11.07;4.20;;;15.00;81.50;;;;;;2036960;28;20647;-76
2022/01/31 00:31:11;;;;;;;7.63;4.20;;;15.00;81.50;;;;;;2037237;28;20223;-76
2022/01/31 00:32:10;;;;;;;10.07;4.50;;;15.00;81.70;;;;;;2037617;28;20788;-76
2022/01/31 00:33:08;;;;;;;8.03;4.20;;;15.00;81.50;;;;;;2037670;28;20596;-76
2022/01/31 00:34:07;;;;;;;14.60;3.90;;;15.00;81.70;;;;;;2037293;28;20324;-76
2022/01/31 00:35:06;;;;;;;7.60;3.80;;;15.00;81.60;;;;;;2037466;28;20252;-76
2022/01/31 00:36:04;;;;;;;8.15;3.83;;;15.00;81.50;;;;;;2037643;28;20182;-77
2022/01/31 00:37:03;;;;;;;10.63;4.07;;;15.00;81.60;;;;;;2037614;28;20171;-76
2022/01/31 00:38:02;;;;;;;9.30;4.10;;;14.90;81.50;;;;;;2037476;28;20182;-76
2022/01/31 00:39:01;;;;;;;9.70;4.00;;;15.00;81.60;;;;;;2038322;28;20176;-75
2022/01/31 00:40:00;;;;;;;10.70;4.10;;;15.00;81.70;;;;;;2037888;28;20166;-76
2022/01/31 00:40:59;;;;;;;7.53;3.78;;;15.00;81.70;;;;;;2037655;28;20622;-77
2022/01/31 00:41:57;;;;;;;10.63;3.73;;;15.00;81.60;;;;;;2036063;28;20174;-77
2022/01/31 00:42:56;;;;;;;10.03;3.57;;;15.00;81.60;;;;;;2036414;28;20170;-76
2022/01/31 00:44:01;;;;;;;8.57;3.83;;;15.00;81.70;;;;;;2036602;28;20173;-76
2022/01/31 00:45:12;;;;;;;11.35;4.20;;;15.00;81.70;;;;;;2037027;28;20584;-76
2022/01/31 00:46:12;;;;;;;10.98;4.55;;;15.00;81.70;;;;;;2038944;28;20151;-76
2022/01/31 00:47:21;;;;;;;11.23;5.68;;;15.00;81.70;;;;;;2037867;28;20178;-76
2022/01/31 00:48:24;;;;;;;12.98;4.45;;;15.00;81.60;;;;;;2038606;28;20147;-75
2022/01/31 00:50:39;;;;;;;12.25;4.97;;;14.90;81.60;;;;;;2037994;28;20493;-76
2022/01/31 00:51:38;;;;;;;8.75;3.90;;;14.90;81.60;;;;;;2038056;28;20222;-76
2022/01/31 00:52:39;;;;;;;9.87;4.33;;;14.90;81.60;;;;;;2038631;28;20174;-75
2022/01/31 00:53:38;;;;;;;15.30;4.90;;;15.00;81.60;;;;;;2038704;28;20273;-76
2022/01/31 00:54:36;;;;;;;8.33;3.53;;;15.00;81.60;;;;;;2038640;28;20601;-75
2022/01/31 00:55:35;;;;;;;7.47;4.10;;;14.90;81.50;;;;;;2038751;28;20174;-76
2022/01/31 00:56:33;;;;;;;11.13;4.20;;;15.00;81.70;;;;;;2038850;28;20171;-75
2022/01/31 00:57:31;;;;;;;7.50;3.43;;;15.00;81.60;;;;;;2039875;28;20197;-76
2022/01/31 00:58:30;;;;;;;8.53;4.07;;;15.00;81.60;;;;;;2039684;28;20175;-75
2022/01/31 00:59:28;;;;;;;9.40;4.47;;;15.00;81.70;;;;;;2039416;28;20470;-76
2022/01/31 01:00:27;;;;;;;7.40;3.50;;;15.00;81.70;;;;;;2039323;28;20220;-75
2022/01/31 01:01:25;;;;;;;7.60;3.60;;;15.00;81.60;;;;;;2040235;28;20220;-76
2022/01/31 01:02:25;;;;;;;8.80;3.70;;;14.90;81.50;;;;;;2039535;28;20178;-75
2022/01/31 01:03:23;;;;;;;8.35;3.80;;;14.90;81.60;;;;;;2038835;28;20194;-75
2022/01/31 01:04:22;;;;;;;10.67;4.03;;;14.90;81.60;;;;;;2038606;28;20261;-77
2022/01/31 01:05:20;;;;;;;7.30;3.77;;;14.90;81.70;;;;;;2039068;28;20170;-75
2022/01/31 01:06:19;;;;;;;13.37;3.90;;;14.90;81.60;;;;;;2038903;28;20166;-76
2022/01/31 01:07:19;;;;;;;11.03;4.10;;;15.00;81.70;;;;;;2039241;28;20519;-75
2022/01/31 01:08:18;;;;;;;8.98;4.00;;;14.90;81.60;;;;;;2038266;28;20170;-75
2022/01/31 01:09:17;;;;;;;11.47;4.37;;;14.90;81.60;;;;;;2038195;28;20209;-76
2022/01/31 01:10:17;;;;;;;10.70;3.77;;;14.90;81.50;;;;;;2037642;28;20647;-76
2022/01/31 01:11:15;;;;;;;5.55;3.60;;;14.90;81.60;;;;;;2037656;28;20174;-76
2022/01/31 01:12:16;;;;;;;9.00;3.63;;;14.90;81.60;;;;;;2037552;28;20179;-77
2022/01/31 01:13:14;;;;;;;7.00;3.80;;;14.90;81.50;;;;;;2037494;28;20198;-77
2022/01/31 01:14:13;;;;;;;11.87;4.47;;;14.90;81.60;;;;;;2037837;28;20207;-75
2022/01/31 01:15:12;;;;;;;7.10;3.80;;;14.90;81.50;;;;;;2039311;28;20494;-77
2022/01/31 01:16:12;;;;;;;8.95;4.18;;;14.90;81.50;;;;;;2039501;28;20175;-75
2022/01/31 01:17:10;;;;;;;9.77;4.20;;;14.90;81.50;;;;;;2038830;28;20210;-76
2022/01/31 01:18:09;;;;;;;7.70;3.30;;;14.90;81.50;;;;;;2038052;28;20238;-75
2022/01/31 01:19:07;;;;;;;9.73;3.90;;;15.00;81.60;;;;;;2037418;28;20170;-75
2022/01/31 01:20:07;;;;;;;7.93;3.80;;;14.90;81.50;;;;;;2037312;28;20637;-76
2022/01/31 01:21:05;;;;;;;10.90;4.30;;;14.90;81.50;;;;;;2036842;28;20174;-75
2022/01/31 01:22:04;;;;;;;9.13;3.60;;;14.90;81.50;;;;;;2036987;28;20590;-77
2022/01/31 01:23:03;;;;;;;6.93;3.57;;;14.90;81.60;;;;;;2036692;28;20218;-76
2022/01/31 01:24:01;;;;;;;7.30;4.17;;;15.00;81.60;;;;;;2037214;28;20527;-76
2022/01/31 01:25:03;;;;;;;10.93;4.13;;;14.90;81.50;;;;;;2037137;28;20186;-76
2022/01/31 01:26:02;;;;;;;8.35;3.40;;;14.90;81.50;;;;;;2036461;28;20224;-76
2022/01/31 01:27:00;;;;;;;13.40;4.60;;;14.90;81.50;;;;;;2036705;28;20213;-75
2022/01/31 01:27:59;;;;;;;12.80;3.70;;;14.90;81.50;;;;;;2037766;28;20178;-75
2022/01/31 01:28:57;;;;;;;9.50;3.90;;;14.90;81.40;;;;;;2037599;28;20174;-75
2022/01/31 01:29:56;;;;;;;8.40;3.67;;;14.90;81.50;;;;;;2037565;28;20178;-76
2022/01/31 01:30:56;;;;;;;7.90;4.43;;;14.90;81.50;;;;;;2038158;28;20629;-76
2022/01/31 01:31:55;;;;;;;7.90;3.55;;;14.90;81.50;;;;;;2037932;28;20187;-77
2022/01/31 01:33:55;;;;;;;12.50;4.40;;;14.90;81.40;;;;;;2041515;28;20412;-76
2022/01/31 01:34:58;;;;;;;11.80;4.10;;;14.90;81.40;;;;;;2039785;28;20199;-76
2022/01/31 01:35:57;;;;;;;8.63;3.53;;;14.90;81.50;;;;;;2041659;28;20178;-76
2022/01/31 01:36:55;;;;;;;7.60;4.37;;;14.90;81.50;;;;;;2045474;28;20184;-74
2022/01/31 01:37:54;;;;;;;7.10;2.90;;;14.80;82.10;;;;;;2045857;28;20163;-74
2022/01/31 01:38:52;;;;;;;7.43;3.20;;;14.90;81.60;;;;;;2045896;28;20185;-72
2022/01/31 01:39:51;;;;;;;7.03;3.67;;;14.90;81.50;;;;;;2045257;28;20222;-74
2022/01/31 01:40:49;;;;;;;8.87;4.50;;;14.90;81.40;;;;;;2045785;28;20195;-75
2022/01/31 01:41:49;;;;;;;8.43;4.10;;;14.90;81.50;;;;;;2046133;28;20222;-73
2022/01/31 01:42:48;;;;;;;11.77;4.18;;;14.90;81.50;;;;;;2045639;28;20210;-74
2022/01/31 01:43:47;;;;;;;7.93;4.33;;;14.80;81.40;;;;;;2044819;28;20174;-74
2022/01/31 01:44:48;;;;;;;8.63;4.22;;;14.80;81.40;;;;;;2043674;28;20181;-75
2022/01/31 01:45:51;;;;;;;12.18;4.13;;;14.90;81.60;;;;;;2038821;28;20166;-76
2022/01/31 01:46:54;;;;;;;11.45;3.70;;;14.90;81.50;;;;;;2038932;28;20563;-75
2022/01/31 01:47:52;;;;;;;9.00;3.90;;;14.90;81.50;;;;;;2040693;28;20163;-75
2022/01/31 01:48:51;;;;;;;7.00;3.43;;;14.90;81.50;;;;;;2045331;28;20166;-75
2022/01/31 01:49:50;;;;;;;8.60;3.93;;;14.80;81.40;;;;;;2044073;28;20170;-75
2022/01/31 01:50:49;;;;;;;6.55;3.60;;;14.90;81.60;;;;;;2043125;28;20233;-77
2022/01/31 01:51:48;;;;;;;9.05;3.50;;;14.90;81.50;;;;;;2039852;28;20524;-77
2022/01/31 01:52:50;;;;;;;9.70;4.37;;;14.80;81.50;;;;;;2046519;28;20166;-75
2022/01/31 01:53:48;;;;;;;7.90;3.35;;;14.80;81.40;;;;;;2045112;28;20154;-74
2022/01/31 01:54:48;;;;;;;12.30;4.70;;;14.90;81.60;;;;;;2045770;28;20284;-76
2022/01/31 01:55:47;;;;;;;6.93;3.70;;;14.80;81.50;;;;;;2044503;28;20163;-73
2022/01/31 01:56:45;;;;;;;8.63;4.25;;;14.80;81.40;;;;;;2043717;28;20162;-75
2022/01/31 01:57:45;;;;;;;7.33;3.80;;;14.80;81.60;;;;;;2042131;28;20166;-74
2022/01/31 01:58:44;;;;;;;8.73;3.93;;;14.90;81.50;;;;;;2039409;28;20192;-75
2022/01/31 01:59:43;;;;;;;6.55;3.10;;;14.80;81.50;;;;;;2038280;28;20435;-75
2022/01/31 02:00:50;;;;;;;9.60;3.90;;;14.90;81.70;;;;;;2039607;28;20174;-74
2022/01/31 02:01:48;;;;;;;6.65;4.00;;;14.90;81.60;;;;;;2038210;28;20906;-75
2022/01/31 02:02:47;;;;;;;7.53;4.03;;;14.80;81.40;;;;;;2038214;28;20228;-75
2022/01/31 02:03:45;;;;;;;7.90;4.00;;;14.90;81.60;;;;;;2037930;28;20500;-75
2022/01/31 02:04:44;;;;;;;7.93;3.40;;;14.90;81.50;;;;;;2038699;28;20174;-75
2022/01/31 02:05:44;;;;;;;8.57;3.73;;;14.90;81.30;;;;;;2038168;28;20224;-75
2022/01/31 02:06:43;;;;;;;8.00;4.30;;;14.90;81.60;;;;;;2039352;28;20174;-75
2022/01/31 02:07:42;;;;;;;9.67;4.10;;;14.80;81.40;;;;;;2039126;28;20659;-75
2022/01/31 02:08:43;;;;;;;10.25;3.95;;;14.80;81.50;;;;;;2039997;28;20259;-76
2022/01/31 02:09:45;;;;;;;9.95;4.43;;;14.80;81.60;;;;;;2039951;28;20560;-75
2022/01/31 02:10:44;;;;;;;11.63;4.10;;;14.80;81.50;;;;;;2040053;28;20645;-76
2022/01/31 02:11:42;;;;;;;7.90;3.77;;;14.80;81.40;;;;;;2039617;28;20257;-75
2022/01/31 02:12:46;;;;;;;13.10;4.33;;;14.80;81.50;;;;;;2040074;28;20178;-75
2022/01/31 02:13:45;;;;;;;9.13;3.70;;;14.80;81.50;;;;;;2039999;28;20192;-76
2022/01/31 02:14:43;;;;;;;8.07;3.53;;;14.80;81.50;;;;;;2039377;28;20348;-76
2022/01/31 02:15:51;;;;;;;7.37;3.23;;;14.80;81.60;;;;;;2037609;28;20213;-76
2022/01/31 02:16:51;;;;;;;7.22;4.18;;;14.80;81.60;;;;;;2037467;28;20186;-76
2022/01/31 02:17:49;;;;;;;12.77;4.28;;;14.80;81.60;;;;;;2037397;28;20178;-75
2022/01/31 02:18:50;;;;;;;8.20;3.83;;;14.80;81.60;;;;;;2037477;28;20170;-76
2022/01/31 02:19:49;;;;;;;7.07;3.95;;;14.80;81.70;;;;;;2037564;28;20318;-76
2022/01/31 02:20:47;;;;;;;7.70;3.50;;;14.80;81.60;;;;;;2037525;28;20342;-75
2022/01/31 02:21:50;;;;;;;7.57;3.37;;;14.80;81.60;;;;;;2037534;28;20517;-76
2022/01/31 02:22:49;;;;;;;6.07;3.35;;;14.80;81.70;;;;;;2037138;28;20163;-77
2022/01/31 02:23:48;;;;;;;7.60;3.67;;;14.80;81.80;;;;;;2037289;28;20277;-76
2022/01/31 02:24:47;;;;;;;8.88;4.47;;;14.80;81.60;;;;;;2037380;28;20239;-75
2022/01/31 02:26:01;;;;;;;15.10;3.57;;;14.80;81.60;;;;;;2037500;28;20198;-76
2022/01/31 02:27:03;;;;;;;12.00;4.10;;;14.80;81.60;;;;;;2037334;28;20621;-74
2022/01/31 02:28:03;;;;;;;17.10;3.90;;;14.80;81.60;;;;;;2037391;28;20648;-76
2022/01/31 02:29:03;;;;;;;9.45;3.92;;;14.80;81.70;;;;;;2037090;28;20206;-75
2022/01/31 02:30:14;;;;;;;11.30;3.80;;;14.80;81.70;;;;;;2037319;28;20167;-75
2022/01/31 02:31:13;;;;;;;11.10;3.97;;;14.80;81.70;;;;;;2036609;28;20183;-75
2022/01/31 02:32:12;;;;;;;6.60;3.07;;;14.80;81.60;;;;;;2036759;28;20174;-76
2022/01/31 02:33:11;;;;;;;7.25;3.38;;;14.80;81.60;;;;;;2036520;28;20280;-76
2022/01/31 02:34:10;;;;;;;11.27;4.10;;;14.80;81.70;;;;;;2036651;28;20601;-75
2022/01/31 02:35:08;;;;;;;10.57;4.90;;;14.80;81.70;;;;;;2037113;28;20217;-75
2022/01/31 02:36:07;;;;;;;7.60;3.60;;;14.80;81.80;;;;;;2037417;28;20177;-76
2022/01/31 02:37:10;;;;;;;6.00;3.07;;;14.80;81.70;;;;;;2037316;28;20692;-76
2022/01/31 02:38:08;;;;;;;6.93;3.53;;;14.80;81.60;;;;;;2037215;28;20404;-76
2022/01/31 02:39:08;;;;;;;7.37;3.70;;;14.70;81.50;;;;;;2037386;28;20182;-76
2022/01/31 02:40:07;;;;;;;7.78;3.95;;;14.80;81.60;;;;;;2037229;28;20243;-75
2022/01/31 02:41:06;;;;;;;11.02;3.95;;;14.80;81.60;;;;;;2037398;28;20614;-75
2022/01/31 02:42:04;;;;;;;8.90;3.33;;;14.80;81.60;;;;;;2037201;28;20174;-76
2022/01/31 02:43:03;;;;;;;12.83;4.13;;;14.80;81.60;;;;;;2037177;28;20247;-76
2022/01/31 02:44:02;;;;;;;12.53;4.17;;;14.80;82.00;;;;;;2037177;28;20453;-76
2022/01/31 02:45:01;;;;;;;9.70;3.00;;;14.80;81.60;;;;;;2037193;28;20217;-76
2022/01/31 02:46:01;;;;;;;11.15;3.85;;;14.80;81.60;;;;;;2037132;28;20164;-75
2022/01/31 02:46:59;;;;;;;7.45;3.30;;;14.80;81.60;;;;;;2037304;28;20166;-75
2022/01/31 02:48:00;;;;;;;7.00;3.60;;;14.80;81.60;;;;;;2037199;28;20176;-76
2022/01/31 02:48:59;;;;;;;14.25;4.38;;;14.80;81.70;;;;;;2037108;28;20482;-76
2022/01/31 02:50:02;;;;;;;7.30;3.70;;;14.80;81.50;;;;;;2037048;28;20171;-77
2022/01/31 02:51:04;;;;;;;5.65;3.17;;;14.80;81.70;;;;;;2037395;28;20509;-76
2022/01/31 02:52:05;;;;;;;7.38;3.45;;;14.80;81.60;;;;;;2037169;28;20179;-74
2022/01/31 02:53:21;;;;;;;7.00;3.70;;;14.80;81.60;;;;;;2037090;28;20210;-75
2022/01/31 02:54:19;;;;;;;11.95;3.67;;;14.80;81.60;;;;;;2036569;28;20174;-75
2022/01/31 02:55:18;;;;;;;7.43;3.60;;;14.80;81.70;;;;;;2036619;28;20649;-75
2022/01/31 02:56:16;;;;;;;6.80;3.27;;;14.80;81.70;;;;;;2037063;28;20171;-75
2022/01/31 02:57:15;;;;;;;7.87;3.30;;;14.80;81.60;;;;;;2037331;28;20170;-76
2022/01/31 02:58:14;;;;;;;7.40;4.03;;;14.80;81.60;;;;;;2037111;28;20595;-75
2022/01/31 02:59:12;;;;;;;11.90;4.22;;;14.80;81.70;;;;;;2037390;28;20267;-75
2022/01/31 03:00:11;;;;;;;7.80;3.03;;;14.80;81.60;;;;;;2037277;28;20174;-76
2022/01/31 03:01:14;;;;;;;10.00;3.53;;;14.80;81.70;;;;;;2037409;28;20211;-75
2022/01/31 03:02:14;;;;;;;11.60;4.20;;;14.80;81.70;;;;;;2037630;28;20224;-76
2022/01/31 03:03:12;;;;;;;5.78;3.10;;;14.80;81.70;;;;;;2037137;28;20186;-76
2022/01/31 03:04:12;;;;;;;9.40;3.60;;;14.80;81.70;;;;;;2037332;28;20605;-76
2022/01/31 03:05:10;;;;;;;8.85;3.63;;;14.90;81.70;;;;;;2036633;28;20258;-75
2022/01/31 03:06:09;;;;;;;11.10;3.53;;;14.80;81.70;;;;;;2036535;28;20178;-76
2022/01/31 03:07:07;;;;;;;9.87;3.90;;;14.70;81.70;;;;;;2036968;28;20182;-75
2022/01/31 03:08:07;;;;;;;5.57;3.37;;;14.70;81.70;;;;;;2036384;28;20178;-76
2022/01/31 03:09:05;;;;;;;5.32;2.85;;;14.70;81.60;;;;;;2036388;28;20631;-75
2022/01/31 03:10:04;;;;;;;6.67;3.47;;;14.80;81.80;;;;;;2037237;28;20268;-76
2022/01/31 03:11:03;;;;;;;11.40;4.17;;;14.70;81.70;;;;;;2036337;28;20569;-75
2022/01/31 03:12:01;;;;;;;4.67;3.07;;;14.80;81.80;;;;;;2036361;28;20245;-75
2022/01/31 03:13:03;;;;;;;6.63;3.60;;;14.80;81.80;;;;;;2036871;28;20218;-76
2022/01/31 03:14:02;;;;;;;6.38;2.83;;;14.70;81.80;;;;;;2036946;28;20181;-76
2022/01/31 03:15:00;;;;;;;5.90;3.10;;;14.80;81.80;;;;;;2036904;28;20213;-75
2022/01/31 03:15:59;;;;;;;7.90;3.70;;;14.80;81.80;;;;;;2037086;28;20198;-76
2022/01/31 03:16:58;;;;;;;14.27;3.70;;;14.60;81.70;;;;;;2036950;28;20647;-77
2022/01/31 03:17:57;;;;;;;8.80;4.37;;;14.70;81.70;;;;;;2037146;28;20173;-75
2022/01/31 03:18:56;;;;;;;4.80;3.13;;;14.70;81.70;;;;;;2036992;28;20174;-75
2022/01/31 03:19:54;;;;;;;6.90;3.63;;;14.70;81.60;;;;;;2037127;28;20171;-76
2022/01/31 03:20:53;;;;;;;6.93;3.10;;;14.70;81.90;;;;;;2036885;28;20245;-75
2022/01/31 03:21:52;;;;;;;9.90;3.47;;;14.70;81.70;;;;;;2037026;28;20319;-75
2022/01/31 03:22:51;;;;;;;4.27;2.73;;;14.70;81.70;;;;;;2036836;28;20173;-76
2022/01/31 03:23:50;;;;;;;7.05;3.80;;;14.80;82.50;;;;;;2037069;28;20537;-76
2022/01/31 03:24:49;;;;;;;5.57;3.88;;;14.70;81.70;;;;;;2036262;28;20231;-76
2022/01/31 03:25:47;;;;;;;6.30;3.07;;;14.70;81.80;;;;;;2036374;28;20170;-74
2022/01/31 03:26:46;;;;;;;12.07;3.57;;;14.80;81.90;;;;;;2036846;28;20181;-76
2022/01/31 03:27:46;;;;;;;9.40;2.93;;;14.70;81.80;;;;;;2036967;28;20163;-76
2022/01/31 03:28:44;;;;;;;7.10;3.40;;;14.70;81.90;;;;;;2036837;28;20258;-76
2022/01/31 03:29:43;;;;;;;9.63;3.47;;;14.70;81.80;;;;;;2036796;28;20174;-76
2022/01/31 03:30:42;;;;;;;8.77;3.70;;;14.70;81.80;;;;;;2036815;28;20620;-76
2022/01/31 03:31:41;;;;;;;10.87;3.70;;;14.70;81.90;;;;;;2036952;28;20437;-76
2022/01/31 03:32:39;;;;;;;10.80;4.27;;;14.70;81.90;;;;;;2036822;28;20184;-76
2022/01/31 03:33:38;;;;;;;4.80;3.20;;;14.80;82.00;;;;;;2036877;28;20791;-75
2022/01/31 03:34:36;;;;;;;7.43;3.73;;;14.70;81.90;;;;;;2036566;28;20225;-77
2022/01/31 03:35:35;;;;;;;7.50;3.00;;;14.70;81.90;;;;;;2036774;28;20481;-76
2022/01/31 03:36:34;;;;;;;12.93;3.87;;;14.70;81.90;;;;;;2036930;28;20170;-76
2022/01/31 03:37:32;;;;;;;6.40;3.47;;;14.70;81.90;;;;;;2036915;28;20169;-76
2022/01/31 03:38:31;;;;;;;8.07;3.63;;;14.70;81.90;;;;;;2036756;28;20605;-75
2022/01/31 03:39:29;;;;;;;8.27;3.73;;;14.70;81.90;;;;;;2036701;28;20163;-75
2022/01/31 03:40:28;;;;;;;5.40;3.57;;;14.70;81.90;;;;;;2036762;28;20174;-77
2022/01/31 03:41:26;;;;;;;7.50;3.53;;;14.70;81.90;;;;;;2036752;28;20174;-76
2022/01/31 03:42:25;;;;;;;4.67;3.10;;;14.70;81.90;;;;;;2036848;28;20621;-75
2022/01/31 03:43:23;;;;;;;8.60;3.37;;;14.70;82.00;;;;;;2036696;28;20194;-75
2022/01/31 03:44:22;;;;;;;7.17;3.63;;;14.70;81.90;;;;;;2036811;28;20170;-76
2022/01/31 03:45:21;;;;;;;6.77;3.20;;;14.70;82.00;;;;;;2036762;28;20590;-77
2022/01/31 03:46:19;;;;;;;6.03;2.80;;;14.70;82.00;;;;;;2036821;28;20170;-75
2022/01/31 03:47:22;;;;;;;7.43;3.40;;;14.70;81.80;;;;;;2036888;28;20529;-76
2022/01/31 03:48:21;;;;;;;6.88;3.60;;;14.70;81.90;;;;;;2036015;28;20201;-76
2022/01/31 03:49:19;;;;;;;10.50;3.60;;;14.70;81.80;;;;;;2036118;28;20181;-74
2022/01/31 03:50:19;;;;;;;7.40;3.57;;;14.70;81.90;;;;;;2036989;28;20210;-76
2022/01/31 03:51:17;;;;;;;10.07;3.30;;;14.70;81.80;;;;;;2036930;28;20612;-76
2022/01/31 03:52:16;;;;;;;7.03;3.30;;;14.70;81.70;;;;;;2036736;28;20167;-76
2022/01/31 03:53:15;;;;;;;9.18;3.05;;;14.70;81.80;;;;;;2036552;28;20202;-76
2022/01/31 03:54:13;;;;;;;9.13;3.53;;;14.70;81.80;;;;;;2036876;28;20625;-76
2022/01/31 03:55:13;;;;;;;7.10;3.07;;;14.60;81.60;;;;;;2036732;28;20653;-76
2022/01/31 03:56:12;;;;;;;12.35;3.60;;;14.70;81.80;;;;;;2036676;28;20174;-76
2022/01/31 03:57:11;;;;;;;11.17;3.63;;;14.70;81.80;;;;;;2036674;28;20178;-76
2022/01/31 03:58:10;;;;;;;10.50;3.40;;;14.70;81.70;;;;;;2036595;28;20167;-76
2022/01/31 03:59:09;;;;;;;6.57;3.30;;;14.70;81.70;;;;;;2035937;28;20194;-76
2022/01/31 04:00:10;;;;;;;7.97;3.10;;;14.70;81.60;;;;;;2036062;28;20174;-76
2022/01/31 04:01:08;;;;;;;6.38;3.22;;;14.70;81.60;;;;;;2035904;28;20202;-76
2022/01/31 04:02:07;;;;;;;7.30;3.10;;;14.80;81.70;;;;;;2036081;28;20170;-76
2022/01/31 04:03:06;;;;;;;8.23;3.43;;;14.70;81.60;;;;;;2036473;28;20227;-76
2022/01/31 04:04:10;;;;;;;9.30;4.13;;;14.80;81.60;;;;;;2036538;28;20462;-76
2022/01/31 04:05:09;;;;;;;5.57;2.85;;;14.80;81.50;;;;;;2035572;28;20193;-76
2022/01/31 04:06:07;;;;;;;10.80;3.70;;;14.70;81.40;;;;;;2035869;28;20705;-76
2022/01/31 04:07:06;;;;;;;7.73;2.80;;;14.70;81.60;;;;;;2036473;28;20411;-76
2022/01/31 04:08:05;;;;;;;8.67;3.30;;;14.70;81.50;;;;;;2036674;28;20178;-76
2022/01/31 04:09:04;;;;;;;7.40;3.17;;;14.70;81.40;;;;;;2036263;28;20596;-76
2022/01/31 04:10:04;;;;;;;5.00;3.00;;;14.70;81.50;;;;;;2036524;28;20174;-76
2022/01/31 04:11:02;;;;;;;10.82;2.97;;;14.70;81.40;;;;;;2036560;28;20174;-75
2022/01/31 04:12:01;;;;;;;5.53;2.77;;;14.70;81.30;;;;;;2036646;28;20178;-76
2022/01/31 04:13:00;;;;;;;7.10;2.93;;;14.70;81.30;;;;;;2036406;28;20214;-75
2022/01/31 04:13:58;;;;;;;7.87;3.10;;;14.70;81.20;;;;;;2036532;28;20173;-75
2022/01/31 04:14:57;;;;;;;8.07;3.13;;;14.70;81.10;;;;;;2036476;28;20194;-76
2022/01/31 04:15:55;;;;;;;5.73;2.60;;;14.50;80.90;;;;;;2036841;28;20182;-75
2022/01/31 04:16:56;;;;;;;9.30;3.00;;;14.60;81.30;;;;;;2036789;28;20159;-75
2022/01/31 04:17:54;;;;;;;8.50;2.90;;;14.70;81.30;;;;;;2036537;28;20182;-75
2022/01/31 04:18:53;;;;;;;7.33;2.43;;;14.70;81.20;;;;;;2036426;28;20182;-76
2022/01/31 04:19:52;;;;;;;6.43;2.87;;;14.70;81.20;;;;;;2036568;28;20200;-75
2022/01/31 04:20:51;;;;;;;8.30;3.80;;;14.70;81.20;;;;;;2036489;28;20158;-75
2022/01/31 04:21:49;;;;;;;7.28;3.15;;;14.70;81.30;;;;;;2036717;28;20287;-75
2022/01/31 04:22:59;;;;;;;7.97;2.70;;;14.70;81.30;;;;;;2041034;28;20167;-75
2022/01/31 04:23:58;;;;;;;7.07;2.75;;;14.70;81.30;;;;;;2035953;28;20584;-75
2022/01/31 04:25:01;;;;;;;8.93;3.10;;;14.70;81.20;;;;;;2035971;28;20197;-75
2022/01/31 04:26:08;;;;;;;7.47;3.35;;;14.80;81.30;;;;;;2036645;28;20163;-76
2022/01/31 04:27:08;;;;;;;7.50;2.70;;;14.80;81.30;;;;;;2036845;28;20165;-75
2022/01/31 04:28:16;;;;;;;11.70;3.30;;;14.80;81.30;;;;;;2036655;28;20166;-76
2022/01/31 04:29:18;;;;;;;7.63;3.00;;;14.90;81.40;;;;;;2037024;28;20216;-75
2022/01/31 04:30:16;;;;;;;4.97;2.53;;;14.80;81.00;;;;;;2036484;28;20742;-75
2022/01/31 04:32:18;;;;;;;5.57;2.88;;;14.80;81.20;;;;;;2046453;28;20171;-72
2022/01/31 04:33:16;;;;;;;6.67;3.30;;;14.80;81.30;;;;;;2045949;28;20202;-72
2022/01/31 04:34:15;;;;;;;5.10;2.73;;;14.80;81.10;;;;;;2046030;28;20230;-75
2022/01/31 04:35:14;;;;;;;6.03;2.43;;;14.80;81.20;;;;;;2044735;28;20221;-77
2022/01/31 04:36:16;;;;;;;9.13;3.27;;;14.80;81.20;;;;;;2041975;28;20193;-75
2022/01/31 04:37:14;;;;;;;6.78;2.85;;;14.90;81.20;;;;;;2042687;28;20601;-76
2022/01/31 04:38:13;;;;;;;4.90;2.83;;;14.90;81.00;;;;;;2042715;28;20174;-76
2022/01/31 04:39:16;;;;;;;5.77;3.50;;;14.90;81.00;;;;;;2038445;28;20170;-76
2022/01/31 04:40:15;;;;;;;6.13;3.00;;;14.90;81.00;;;;;;2036509;28;20464;-75
2022/01/31 04:41:14;;;;;;;4.90;2.83;;;14.90;81.10;;;;;;2036441;28;20170;-76
2022/01/31 04:42:12;;;;;;;6.77;3.60;;;14.90;81.00;;;;;;2036526;28;20178;-75
2022/01/31 04:43:11;;;;;;;5.30;3.03;;;14.90;80.90;;;;;;2036413;28;20420;-75
2022/01/31 04:44:11;;;;;;;7.80;2.50;;;14.90;81.00;;;;;;2036615;28;20188;-76
2022/01/31 04:45:10;;;;;;;9.90;2.85;;;14.90;80.90;;;;;;2036511;28;20242;-76
2022/01/31 04:46:10;;;;;;;5.95;2.85;;;14.90;81.00;;;;;;2036472;28;20182;-77
2022/01/31 04:47:08;;;;;;;6.80;2.70;;;14.90;80.90;;;;;;2036558;28;20636;-75
2022/01/31 04:48:07;;;;;;;6.63;2.93;;;14.90;80.80;;;;;;2036440;28;20171;-76
2022/01/31 04:49:06;;;;;;;4.77;2.40;;;14.80;80.60;;;;;;2036556;28;20177;-76
2022/01/31 04:50:07;;;;;;;6.90;3.10;;;14.80;80.90;;;;;;2036311;28;20649;-76
2022/01/31 04:51:06;;;;;;;8.35;3.20;;;14.90;81.00;;;;;;2036330;28;20227;-76
2022/01/31 04:52:04;;;;;;;7.90;3.00;;;14.90;80.80;;;;;;2036432;28;20231;-76
2022/01/31 04:53:03;;;;;;;4.77;2.60;;;14.90;80.80;;;;;;2036408;28;20264;-76
2022/01/31 04:54:01;;;;;;;6.90;3.07;;;15.00;81.10;;;;;;2036489;28;20182;-76
2022/01/31 04:55:00;;;;;;;5.37;2.90;;;14.90;80.90;;;;;;2035766;28;20197;-76
2022/01/31 04:55:58;;;;;;;8.23;3.23;;;15.00;81.00;;;;;;2035741;28;20531;-75
2022/01/31 04:56:57;;;;;;;6.20;2.90;;;15.00;81.20;;;;;;2035736;28;20672;-75
2022/01/31 04:57:56;;;;;;;5.80;2.77;;;15.00;80.80;;;;;;2036391;28;20170;-76
2022/01/31 04:58:55;;;;;;;5.55;3.13;;;15.00;80.90;;;;;;2036438;28;20174;-78
2022/01/31 04:59:53;;;;;;;6.83;2.93;;;15.00;80.90;;;;;;2036478;28;20171;-75
2022/01/31 05:00:52;;;;;;;8.57;3.40;;;15.10;80.80;;;;;;2036237;28;20172;-75
2022/01/31 05:01:51;;;;;;;7.17;3.30;;;15.10;80.80;;;;;;2036356;28;20190;-75
2022/01/31 05:02:50;;;;;;;7.32;2.83;;;15.00;80.60;;;;;;2036263;28;20628;-75
2022/01/31 05:03:49;;;;;;;6.43;2.90;;;15.00;80.70;;;;;;2036265;28;20197;-76
2022/01/31 05:04:48;;;;;;;6.63;2.90;;;15.00;80.60;;;;;;2036306;28;20239;-75
2022/01/31 05:05:46;;;;;;;7.87;2.80;;;15.00;80.70;;;;;;2036368;28;20633;-76
2022/01/31 05:06:46;;;;;;;7.00;2.40;;;15.10;80.80;;;;;;2036380;28;20170;-75
2022/01/31 05:07:44;;;;;;;7.75;3.72;;;15.10;80.70;;;;;;2036527;28;20163;-75
2022/01/31 05:08:43;;;;;;;7.97;2.70;;;15.10;80.80;;;;;;2036463;28;20586;-74
2022/01/31 05:09:43;;;;;;;6.70;2.60;;;15.00;80.60;;;;;;2036283;28;20192;-76
2022/01/31 05:10:44;;;;;;;9.30;3.42;;;15.10;80.80;;;;;;2036309;28;20245;-76
2022/01/31 05:11:43;;;;;;;4.32;2.55;;;15.10;80.70;;;;;;2036245;28;20167;-76
2022/01/31 05:12:43;;;;;;;7.70;2.37;;;15.00;80.50;;;;;;2035631;28;20202;-75